createdAt,value
2022-08-22T00:01:11.490Z,18.64
2022-08-22T00:02:55.897Z,19.62
2022-08-22T00:03:09.413Z,18.78
2022-08-22T00:03:48.646Z,18.65
2022-08-22T00:06:27.049Z,18.61
2022-08-22T00:09:06.763Z,18.57
2022-08-22T00:11:48.127Z,18.54
2022-08-22T00:14:22.606Z,18.48
2022-08-22T00:16:58.086Z,18.45
2022-08-22T00:19:36.599Z,18.33
2022-08-22T00:22:15.153Z,18.33
2022-08-22T00:24:48.640Z,18.35
2022-08-22T00:27:21.760Z,18.27
2022-08-22T00:30:00.840Z,18.26
2022-08-22T00:32:35.334Z,18.25
2022-08-22T00:35:08.262Z,18.23
2022-08-22T00:37:41.558Z,18.25
2022-08-22T00:40:20.370Z,18.23
2022-08-22T00:43:07.975Z,18.21
2022-08-22T00:46:09.767Z,18.25
2022-08-22T00:49:09.363Z,18.27
2022-08-22T00:52:07.811Z,18.33
2022-08-22T00:54:55.558Z,18.34
2022-08-22T00:57:41.932Z,18.37
2022-08-22T01:00:15.065Z,18.42
2022-08-22T01:03:11.891Z,18.45
2022-08-22T01:05:53.445Z,18.45
2022-08-22T01:08:39.244Z,18.47
2022-08-22T01:11:25.562Z,18.49
2022-08-22T01:14:12.039Z,18.50
2022-08-22T01:17:11.919Z,18.51
2022-08-22T01:20:33.728Z,18.48
2022-08-22T01:26:31.461Z,18.42
2022-08-22T01:29:36.991Z,18.45
2022-08-22T01:32:56.814Z,18.42
2022-08-22T01:36:01.701Z,18.42
2022-08-22T01:38:40.323Z,18.42
2022-08-22T01:41:29.794Z,18.45
2022-08-22T01:44:19.367Z,18.48
2022-08-22T01:46:54.846Z,18.51
2022-08-22T01:49:27.350Z,18.50
2022-08-22T01:52:02.367Z,18.52
2022-08-22T01:54:43.793Z,18.51
2022-08-22T01:57:12.290Z,18.54
2022-08-22T01:59:42.886Z,18.55
2022-08-22T02:02:28.163Z,18.57
2022-08-22T02:05:03.077Z,18.57
2022-08-22T02:07:41.991Z,18.59
2022-08-22T02:10:18.006Z,18.58
2022-08-22T02:12:57.435Z,18.58
2022-08-22T02:15:35.830Z,18.57
2022-08-22T02:18:14.575Z,18.55
2022-08-22T02:20:59.651Z,18.50
2022-08-22T02:23:43.204Z,18.48
2022-08-22T02:26:15.980Z,18.48
2022-08-22T02:28:57.335Z,18.48
2022-08-22T02:31:37.121Z,18.44
2022-08-22T02:34:20.847Z,18.46
2022-08-22T02:36:53.548Z,18.50
2022-08-22T02:39:33.596Z,18.45
2022-08-22T02:42:16.608Z,18.46
2022-08-22T02:45:04.089Z,18.40
2022-08-22T02:47:39.365Z,18.36
2022-08-22T02:50:18.061Z,18.35
2022-08-22T02:52:58.088Z,18.30
2022-08-22T02:55:39.976Z,18.28
2022-08-22T02:58:17.778Z,18.30
2022-08-22T03:00:48.867Z,18.27
2022-08-22T03:03:21.397Z,18.24
2022-08-22T03:06:01.948Z,18.21
2022-08-22T03:08:32.812Z,18.17
2022-08-22T03:11:11.718Z,18.20
2022-08-22T03:13:54.111Z,18.23
2022-08-22T03:16:30.925Z,18.24
2022-08-22T03:19:06.447Z,18.24
2022-08-22T03:21:41.938Z,18.23
2022-08-22T03:24:20.813Z,18.18
2022-08-22T03:26:56.801Z,18.23
2022-08-22T03:29:32.005Z,18.18
2022-08-22T03:32:14.248Z,18.18
2022-08-22T03:34:56.400Z,18.17
2022-08-22T03:37:32.317Z,18.20
2022-08-22T03:40:04.112Z,18.18
2022-08-22T03:43:18.869Z,18.15
2022-08-22T03:46:13.903Z,18.22
2022-08-22T03:49:15.547Z,18.20
2022-08-22T03:51:59.886Z,18.20
2022-08-22T03:55:06.643Z,18.20
2022-08-22T03:58:28.458Z,18.18
2022-08-22T04:01:28.720Z,18.15
2022-08-22T04:04:36.045Z,18.14
2022-08-22T04:07:40.406Z,18.15
2022-08-22T04:10:41.173Z,18.08
2022-08-22T04:13:32.299Z,18.00
2022-08-22T04:16:23.665Z,17.91
2022-08-22T04:19:13.133Z,17.88
2022-08-22T04:22:02.787Z,17.77
2022-08-22T04:24:43.224Z,17.68
2022-08-22T04:27:21.937Z,17.58
2022-08-22T04:29:55.672Z,17.58
2022-08-22T04:32:29.313Z,17.46
2022-08-22T04:35:03.555Z,17.41
2022-08-22T04:37:39.032Z,17.31
2022-08-22T04:40:09.905Z,17.27
2022-08-22T04:42:42.408Z,17.24
2022-08-22T04:45:16.987Z,17.22
2022-08-22T04:47:54.096Z,17.15
2022-08-22T04:50:36.602Z,17.13
2022-08-22T04:53:18.551Z,17.09
2022-08-22T04:55:56.428Z,17.05
2022-08-22T04:58:37.272Z,17.05
2022-08-22T05:01:13.929Z,17.05
2022-08-22T05:03:47.698Z,17.05
2022-08-22T05:06:20.322Z,17.09
2022-08-22T05:08:53.765Z,17.10
2022-08-22T05:11:24.329Z,17.15
2022-08-22T05:13:55.252Z,17.18
2022-08-22T05:16:28.349Z,17.18
2022-08-22T05:19:02.311Z,17.18
2022-08-22T05:21:36.493Z,17.19
2022-08-22T05:24:07.181Z,17.21
2022-08-22T05:26:39.203Z,17.23
2022-08-22T05:29:09.924Z,17.25
2022-08-22T05:31:42.316Z,17.25
2022-08-22T05:34:14.806Z,17.26
2022-08-22T05:36:46.888Z,17.28
2022-08-22T05:39:21.105Z,17.31
2022-08-22T05:41:49.815Z,17.25
2022-08-22T05:44:20.448Z,17.25
2022-08-22T05:46:51.321Z,17.25
2022-08-22T05:49:21.612Z,17.23
2022-08-22T05:52:03.468Z,17.25
2022-08-22T05:54:34.775Z,17.26
2022-08-22T05:57:09.695Z,17.25
2022-08-22T05:59:41.936Z,17.25
2022-08-22T06:02:14.965Z,17.25
2022-08-22T06:04:48.324Z,17.24
2022-08-22T06:07:20.127Z,17.20
2022-08-22T06:10:09.054Z,17.20
2022-08-22T06:12:39.827Z,17.18
2022-08-22T06:15:21.094Z,17.20
2022-08-22T06:17:50.586Z,17.16
2022-08-22T06:20:21.467Z,17.15
2022-08-22T06:22:56.022Z,17.13
2022-08-22T06:25:27.015Z,17.10
2022-08-22T06:27:55.881Z,17.15
2022-08-22T06:30:27.834Z,17.19
2022-08-22T06:33:01.205Z,17.20
2022-08-22T06:35:32.745Z,17.20
2022-08-22T06:38:01.648Z,17.20
2022-08-22T06:40:30.157Z,17.23
2022-08-22T06:42:59.153Z,17.28
2022-08-22T06:45:29.690Z,17.36
2022-08-22T06:48:11.917Z,17.37
2022-08-22T06:50:41.827Z,17.41
2022-08-22T06:53:15.513Z,17.42
2022-08-22T06:55:47.778Z,17.43
2022-08-22T06:58:18.762Z,17.43
2022-08-22T07:00:53.542Z,17.47
2022-08-22T07:03:38.576Z,17.50
2022-08-22T07:06:07.073Z,17.52
2022-08-22T07:08:39.028Z,17.48
2022-08-22T07:11:13.429Z,17.47
2022-08-22T07:13:46.681Z,17.40
2022-08-22T07:16:14.160Z,17.40
2022-08-22T07:18:49.651Z,17.38
2022-08-22T07:21:23.878Z,17.37
2022-08-22T07:23:52.747Z,17.35
2022-08-22T07:26:28.805Z,17.36
2022-08-22T07:29:01.170Z,17.37
2022-08-22T07:31:37.629Z,17.39
2022-08-22T07:34:21.783Z,17.40
2022-08-22T07:36:56.516Z,17.42
2022-08-22T07:39:29.813Z,17.39
2022-08-22T07:42:14.017Z,17.34
2022-08-22T07:45:02.264Z,17.33
2022-08-22T07:47:49.727Z,17.36
2022-08-22T07:50:23.399Z,17.37
2022-08-22T07:52:52.788Z,17.40
2022-08-22T07:55:24.985Z,17.41
2022-08-22T07:57:56.422Z,17.43
2022-08-22T08:00:25.481Z,17.41
2022-08-22T08:02:54.853Z,17.43
2022-08-22T08:05:24.615Z,17.49
2022-08-22T08:07:54.690Z,17.48
2022-08-22T08:10:28.969Z,17.52
2022-08-22T08:13:03.342Z,17.57
2022-08-22T08:15:34.677Z,17.58
2022-08-22T08:18:05.966Z,17.60
2022-08-22T08:20:36.269Z,17.62
2022-08-22T08:23:07.197Z,17.65
2022-08-22T08:25:53.442Z,17.71
2022-08-22T08:28:22.395Z,17.74
2022-08-22T08:30:56.634Z,17.74
2022-08-22T08:33:27.646Z,17.77
2022-08-22T08:36:02.996Z,17.84
2022-08-22T08:38:36.197Z,17.88
2022-08-22T08:41:34.477Z,17.86
2022-08-22T08:44:15.095Z,17.86
2022-08-22T08:47:12.443Z,17.84
2022-08-22T08:49:55.252Z,17.87
2022-08-22T08:52:41.509Z,17.88
2022-08-22T08:55:21.698Z,17.85
2022-08-22T08:58:07.032Z,17.85
2022-08-22T09:00:50.424Z,17.85
2022-08-22T09:03:36.621Z,17.88
2022-08-22T09:06:42.886Z,17.92
2022-08-22T09:09:32.800Z,18.02
2022-08-22T09:12:23.934Z,18.01
2022-08-22T09:15:14.249Z,18.07
2022-08-22T09:18:18.239Z,18.11
2022-08-22T09:21:31.197Z,18.18
2022-08-22T09:24:25.898Z,18.24
2022-08-22T09:26:57.370Z,18.28
2022-08-22T09:29:55.192Z,18.37
2022-08-22T09:32:42.949Z,18.48
2022-08-22T09:35:23.107Z,18.55
2022-08-22T09:38:06.073Z,18.65
2022-08-22T09:40:40.687Z,18.71
2022-08-22T09:43:14.315Z,18.79
2022-08-22T09:45:55.841Z,18.83
2022-08-22T09:48:43.021Z,18.94
2022-08-22T09:51:33.841Z,18.96
2022-08-22T09:54:37.760Z,19.04
2022-08-22T09:57:32.336Z,19.12
2022-08-22T10:00:16.441Z,19.18
2022-08-22T10:02:58.553Z,19.28
2022-08-22T10:05:39.487Z,19.34
2022-08-22T10:08:19.998Z,19.41
2022-08-22T10:11:25.877Z,19.49
2022-08-22T10:14:09.887Z,19.53
2022-08-22T10:16:56.325Z,19.66
2022-08-22T10:19:29.037Z,19.70
2022-08-22T10:22:24.609Z,19.81
2022-08-22T10:25:13.416Z,19.89
2022-08-22T10:27:55.567Z,20.01
2022-08-22T10:30:27.743Z,20.06
2022-08-22T10:33:03.839Z,20.13
2022-08-22T10:35:37.808Z,20.20
2022-08-22T10:38:14.290Z,20.25
2022-08-22T10:40:51.850Z,20.35
2022-08-22T10:43:28.939Z,20.44
2022-08-22T10:46:02.756Z,20.54
2022-08-22T10:48:39.818Z,20.61
2022-08-22T10:51:19.528Z,20.66
2022-08-22T10:54:00.823Z,20.72
2022-08-22T10:56:34.756Z,20.83
2022-08-22T10:59:16.046Z,20.86
2022-08-22T11:01:57.275Z,20.88
2022-08-22T11:04:45.021Z,20.93
2022-08-22T11:07:33.096Z,20.99
2022-08-22T11:10:09.714Z,21.03
2022-08-22T11:12:43.245Z,21.05
2022-08-22T11:15:27.301Z,21.07
2022-08-22T11:18:18.522Z,21.05
2022-08-22T11:20:59.690Z,21.08
2022-08-22T11:23:39.993Z,21.13
2022-08-22T11:26:33.705Z,21.15
2022-08-22T11:29:24.322Z,21.15
2022-08-22T11:32:06.135Z,21.18
2022-08-22T11:34:48.618Z,21.18
2022-08-22T11:37:40.330Z,21.27
2022-08-22T11:40:23.579Z,21.31
2022-08-22T11:43:04.015Z,21.29
2022-08-22T11:45:45.910Z,21.25
2022-08-22T11:48:25.826Z,21.19
2022-08-22T11:51:04.123Z,21.23
2022-08-22T11:53:47.753Z,21.28
2022-08-22T11:56:25.972Z,21.29
2022-08-22T11:59:01.603Z,21.32
2022-08-22T12:01:37.929Z,21.32
2022-08-22T12:04:13.019Z,21.34
2022-08-22T12:06:57.053Z,21.36
2022-08-22T12:09:38.118Z,21.33
2022-08-22T12:12:21.011Z,21.31
2022-08-22T12:14:57.854Z,21.31
2022-08-22T12:18:10.769Z,21.33
2022-08-22T12:21:22.683Z,21.31
2022-08-22T12:24:19.018Z,21.29
2022-08-22T12:27:01.291Z,21.32
2022-08-22T12:29:44.688Z,21.29
2022-08-22T12:32:49.818Z,21.29
2022-08-22T12:35:29.867Z,21.25
2022-08-22T12:38:28.823Z,21.25
2022-08-22T12:41:28.272Z,21.27
2022-08-22T12:44:20.082Z,21.25
2022-08-22T12:47:04.314Z,21.26
2022-08-22T12:49:44.923Z,21.26
2022-08-22T12:52:40.377Z,21.15
2022-08-22T12:55:26.298Z,21.14
2022-08-22T12:58:06.897Z,21.12
2022-08-22T13:00:37.929Z,21.11
2022-08-22T13:03:09.455Z,21.07
2022-08-22T13:05:44.153Z,21.05
2022-08-22T13:08:15.961Z,21.04
2022-08-22T13:10:48.215Z,20.92
2022-08-22T13:13:31.629Z,20.89
2022-08-22T13:16:06.989Z,20.88
2022-08-22T13:18:44.818Z,20.87
2022-08-22T13:21:21.631Z,20.85
2022-08-22T13:23:54.264Z,20.88
2022-08-22T13:26:33.578Z,20.90
2022-08-22T13:31:56.971Z,20.84
2022-08-22T13:34:39.803Z,20.80
2022-08-22T13:37:15.547Z,20.79
2022-08-22T13:39:46.078Z,20.75
2022-08-22T13:42:30.182Z,20.77
2022-08-22T13:44:59.616Z,20.77
2022-08-22T13:47:31.815Z,20.75
2022-08-22T13:50:07.798Z,20.65
2022-08-22T13:52:52.252Z,20.56
2022-08-22T13:55:31.402Z,20.59
2022-08-22T13:58:06.720Z,20.57
2022-08-22T14:01:25.375Z,20.59
2022-08-22T14:04:00.871Z,20.60
2022-08-22T14:06:37.737Z,20.62
2022-08-22T14:09:29.568Z,20.57
2022-08-22T14:12:11.992Z,20.52
2022-08-22T14:14:42.414Z,20.52
2022-08-22T14:17:16.275Z,20.53
2022-08-22T14:19:52.931Z,20.59
2022-08-22T14:22:32.003Z,20.59
2022-08-22T14:25:08.316Z,20.55
2022-08-22T14:27:39.585Z,20.55
2022-08-22T14:30:15.500Z,20.53
2022-08-22T14:32:46.323Z,20.52
2022-08-22T14:35:23.284Z,20.49
2022-08-22T14:38:17.572Z,20.54
2022-08-22T14:40:53.788Z,20.52
2022-08-22T14:43:40.774Z,20.51
2022-08-22T14:46:13.415Z,20.44
2022-08-22T14:48:47.916Z,20.41
2022-08-22T14:51:21.781Z,20.37
2022-08-22T14:53:50.178Z,20.32
2022-08-22T14:56:22.699Z,20.34
2022-08-22T14:58:53.844Z,20.31
2022-08-22T15:01:23.578Z,20.31
2022-08-22T15:03:59.919Z,20.25
2022-08-22T15:06:33.499Z,20.29
2022-08-22T15:09:08.086Z,20.24
2022-08-22T15:11:42.208Z,20.23
2022-08-22T15:14:14.017Z,20.29
2022-08-22T15:16:45.377Z,20.28
2022-08-22T15:19:27.357Z,20.29
2022-08-22T15:22:11.354Z,20.27
2022-08-22T15:24:44.438Z,20.26
2022-08-22T15:27:18.355Z,20.29
2022-08-22T15:29:50.952Z,20.29
2022-08-22T15:32:22.943Z,20.31
2022-08-22T15:35:02.590Z,20.30
2022-08-22T15:37:32.956Z,20.30
2022-08-22T15:40:14.643Z,20.28
2022-08-22T15:42:47.692Z,20.30
2022-08-22T15:45:33.752Z,20.34
2022-08-22T15:48:05.258Z,20.34
2022-08-22T15:50:37.646Z,20.36
2022-08-22T15:53:15.244Z,20.37
2022-08-22T15:56:25.925Z,20.36
2022-08-22T15:59:20.482Z,20.34
2022-08-22T16:01:53.276Z,20.34
2022-08-22T16:04:34.455Z,20.32
2022-08-22T16:07:05.452Z,20.32
2022-08-22T16:09:43.551Z,20.29
2022-08-22T16:12:26.518Z,20.31
2022-08-22T16:14:56.526Z,20.33
2022-08-22T16:17:44.480Z,20.31
2022-08-22T16:20:53.957Z,20.32
2022-08-22T16:23:21.233Z,20.31
2022-08-22T16:26:09.582Z,20.32
2022-08-22T16:28:58.575Z,20.30
2022-08-22T16:31:38.486Z,20.27
2022-08-22T16:34:24.555Z,20.23
2022-08-22T16:37:31.128Z,20.24
2022-08-22T16:40:14.551Z,20.23
2022-08-22T16:42:44.587Z,20.23
2022-08-22T16:45:17.641Z,20.21
2022-08-22T16:47:52.774Z,20.23
2022-08-22T16:50:37.797Z,20.20
2022-08-22T16:53:11.955Z,20.21
2022-08-22T16:56:10.601Z,20.18
2022-08-22T16:59:19.619Z,20.15
2022-08-22T17:02:03.568Z,20.14
2022-08-22T17:04:44.298Z,20.07
2022-08-22T17:07:26.100Z,20.07
2022-08-22T17:10:12.205Z,20.02
2022-08-22T17:12:54.422Z,20.00
2022-08-22T17:15:31.812Z,19.99
2022-08-22T17:18:21.826Z,19.97
2022-08-22T17:21:11.190Z,19.90
2022-08-22T17:23:45.787Z,19.90
2022-08-22T17:26:21.936Z,19.86
2022-08-22T17:29:02.225Z,19.82
2022-08-22T17:31:36.245Z,19.78
2022-08-22T17:34:17.747Z,19.79
2022-08-22T17:37:01.590Z,19.80
2022-08-22T17:39:55.559Z,19.81
2022-08-22T17:42:52.005Z,19.82
2022-08-22T17:45:28.049Z,19.79
2022-08-22T17:48:02.533Z,19.76
2022-08-22T17:50:37.056Z,19.74
2022-08-22T17:53:12.608Z,19.71
2022-08-22T17:55:58.249Z,19.69
2022-08-22T17:58:37.806Z,19.64
2022-08-22T18:01:14.858Z,19.65
2022-08-22T18:03:51.511Z,19.61
2022-08-22T18:06:23.518Z,19.58
2022-08-22T18:11:50.688Z,19.58
2022-08-22T18:14:27.789Z,19.59
2022-08-22T18:16:57.588Z,19.61
2022-08-22T18:19:40.427Z,19.62
2022-08-22T18:22:13.639Z,19.61
2022-08-22T18:24:51.128Z,19.58
2022-08-22T18:27:30.056Z,19.56
2022-08-22T18:30:17.099Z,19.58
2022-08-22T18:32:54.433Z,19.56
2022-08-22T18:35:29.172Z,19.55
2022-08-22T18:38:03.202Z,19.54
2022-08-22T18:40:53.118Z,19.46
2022-08-22T18:43:26.581Z,19.40
2022-08-22T18:46:02.799Z,19.38
2022-08-22T18:48:54.302Z,19.35
2022-08-22T18:51:29.466Z,19.35
2022-08-22T18:54:18.511Z,19.37
2022-08-22T18:56:54.280Z,19.35
2022-08-22T18:59:48.102Z,19.33
2022-08-22T19:02:35.198Z,19.32
2022-08-22T19:05:33.915Z,19.32
2022-08-22T19:08:22.848Z,19.34
2022-08-22T19:11:07.387Z,19.32
2022-08-22T19:13:51.046Z,19.32
2022-08-22T19:17:06.894Z,19.34
2022-08-22T19:19:46.089Z,19.31
2022-08-22T19:22:26.964Z,19.29
2022-08-22T19:25:19.808Z,19.33
2022-08-22T19:28:22.993Z,19.33
2022-08-22T19:31:24.338Z,19.25
2022-08-22T19:34:18.280Z,19.28
2022-08-22T19:36:47.652Z,19.26
2022-08-22T19:39:49.558Z,19.26
2022-08-22T19:42:35.506Z,19.23
2022-08-22T19:45:21.457Z,19.23
2022-08-22T19:48:00.832Z,19.23
2022-08-22T19:50:33.628Z,19.21
2022-08-22T19:53:26.604Z,19.22
2022-08-22T19:56:05.668Z,19.21
2022-08-22T19:58:49.040Z,19.22
2022-08-22T20:01:36.606Z,19.21
2022-08-22T20:04:19.944Z,19.22
2022-08-22T20:06:58.859Z,19.20
2022-08-22T20:09:38.472Z,19.17
2022-08-22T20:12:15.731Z,19.17
2022-08-22T20:14:46.577Z,19.16
2022-08-22T20:17:35.348Z,19.09
2022-08-22T20:20:24.125Z,19.10
2022-08-22T20:23:03.964Z,19.07
2022-08-22T20:25:44.052Z,19.04
2022-08-22T20:28:28.885Z,19.04
2022-08-22T20:30:59.756Z,19.08
2022-08-22T20:33:31.347Z,19.05
2022-08-22T20:36:03.610Z,19.08
2022-08-22T20:38:33.791Z,19.09
2022-08-22T20:41:11.820Z,19.09
2022-08-22T20:43:43.722Z,19.03
2022-08-22T20:46:24.429Z,18.99
2022-08-22T20:48:54.347Z,18.95
2022-08-22T20:51:25.304Z,18.93
2022-08-22T20:53:55.593Z,18.91
2022-08-22T20:56:38.344Z,18.89
2022-08-22T20:59:18.317Z,18.87
2022-08-22T21:01:46.466Z,18.83
2022-08-22T21:04:13.806Z,18.81
2022-08-22T21:06:42.570Z,18.80
2022-08-22T21:09:12.818Z,18.78
2022-08-22T21:11:50.885Z,18.80
2022-08-22T21:14:21.078Z,18.78
2022-08-22T21:16:48.443Z,18.76
2022-08-22T21:19:21.042Z,18.76
2022-08-22T21:21:49.860Z,18.70
2022-08-22T21:24:16.917Z,18.65
2022-08-22T21:26:49.669Z,18.60
2022-08-22T21:29:22.591Z,18.59
2022-08-22T21:31:53.139Z,18.58
2022-08-22T21:34:23.439Z,18.54
2022-08-22T21:36:55.335Z,18.51
2022-08-22T21:39:26.574Z,18.54
2022-08-22T21:42:13.428Z,18.51
2022-08-22T21:44:42.978Z,18.44
2022-08-22T21:47:30.176Z,18.42
2022-08-22T21:50:14.773Z,18.38
2022-08-22T21:52:58.924Z,18.39
2022-08-22T21:55:28.292Z,18.41
2022-08-22T21:58:08.128Z,18.41
2022-08-22T22:00:48.753Z,18.32
2022-08-22T22:03:18.742Z,18.27
2022-08-22T22:05:46.126Z,18.25
2022-08-22T22:08:15.533Z,18.26
2022-08-22T22:10:45.262Z,18.27
2022-08-22T22:13:12.996Z,18.24
2022-08-22T22:15:42.947Z,18.21
2022-08-22T22:18:11.109Z,18.21
2022-08-22T22:20:38.872Z,18.22
2022-08-22T22:23:05.999Z,18.17
2022-08-22T22:25:39.801Z,18.17
2022-08-22T22:28:13.016Z,18.15
2022-08-22T22:30:41.532Z,18.16
2022-08-22T22:33:09.027Z,18.16
2022-08-22T22:35:38.042Z,18.10
2022-08-22T22:38:05.270Z,18.12
2022-08-22T22:40:32.597Z,18.12
2022-08-22T22:43:01.482Z,18.12
2022-08-22T22:45:28.711Z,18.08
2022-08-22T22:47:55.846Z,18.10
2022-08-22T22:50:23.292Z,18.06
2022-08-22T22:52:51.032Z,18.07
2022-08-22T22:55:24.787Z,18.03
2022-08-22T22:57:59.244Z,18.00
2022-08-22T23:00:30.857Z,18.02
2022-08-22T23:02:59.066Z,17.98
2022-08-22T23:05:26.275Z,18.00
2022-08-22T23:07:53.517Z,17.93
2022-08-22T23:10:22.192Z,17.93
2022-08-22T23:12:50.053Z,17.90
2022-08-22T23:15:17.142Z,17.88
2022-08-22T23:17:46.152Z,17.85
2022-08-22T23:20:13.447Z,17.79
2022-08-22T23:22:40.892Z,17.74
2022-08-22T23:25:08.401Z,17.73
2022-08-22T23:27:35.538Z,17.74
2022-08-22T23:30:03.770Z,17.74
2022-08-22T23:32:31.007Z,17.74
2022-08-22T23:34:59.951Z,17.80
2022-08-22T23:37:26.977Z,17.81
2022-08-22T23:39:54.275Z,17.77
2022-08-22T23:42:21.358Z,17.74
2022-08-22T23:44:48.401Z,17.77
2022-08-22T23:47:15.746Z,17.73
2022-08-22T23:49:44.130Z,17.76
2022-08-22T23:52:13.976Z,17.77
2022-08-22T23:54:41.776Z,17.72
2022-08-22T23:57:11.864Z,17.70
2022-08-22T23:59:47.892Z,17.69
